Time;durP1;ratioP1;P1;durP2;ratioP2;P2;SDS_P1;SDS_P2;PMS_P1;PMS_P2;Temp;Humidity;BMP_temperature;BMP_pressure;BME280_temperature;BME280_humidity;BME280_pressure;Samples;Min_cycle;Max_cycle;Signal;HPM_P1;HPM_P2
2021/01/16 00:00:28;;;;;;;2.97;1.50;;;1.10;60.90;;;;;;5009487;28;20779;-65
2021/01/16 00:02:54;;;;;;;1.88;1.25;;;1.00;60.90;;;;;;5024099;28;20029;-65
2021/01/16 00:05:22;;;;;;;3.65;1.88;;;1.00;62.50;;;;;;5006010;28;20022;-65
2021/01/16 00:07:58;;;;;;;2.63;1.40;;;1.00;62.50;;;;;;5009591;28;20049;-65
2021/01/16 00:10:24;;;;;;;2.00;1.52;;;1.10;61.70;;;;;;5008991;28;20033;-64
2021/01/16 00:12:50;;;;;;;4.63;2.00;;;1.10;61.80;;;;;;5009645;28;20674;-65
2021/01/16 00:15:16;;;;;;;2.40;1.83;;;1.10;61.60;;;;;;5024580;28;20825;-65
2021/01/16 00:17:42;;;;;;;2.30;1.80;;;1.10;61.60;;;;;;5007836;28;20040;-65
2021/01/16 00:20:09;;;;;;;2.05;1.52;;;1.20;61.60;;;;;;5010458;28;20172;-65
2021/01/16 00:22:45;;;;;;;3.50;1.80;;;1.20;62.00;;;;;;5009862;28;20239;-66
2021/01/16 00:25:11;;;;;;;3.08;1.85;;;1.20;61.90;;;;;;5014685;28;20033;-66
2021/01/16 00:27:37;;;;;;;3.92;2.10;;;1.20;62.10;;;;;;5006504;28;20437;-66
2021/01/16 00:30:06;;;;;;;2.15;1.48;;;1.30;61.40;;;;;;5020758;28;20049;-65
2021/01/16 00:32:31;;;;;;;2.03;1.58;;;1.30;61.60;;;;;;5021789;28;20044;-65
2021/01/16 00:34:57;;;;;;;2.25;1.63;;;1.20;60.90;;;;;;5015099;28;20041;-65
2021/01/16 00:37:23;;;;;;;2.33;1.60;;;1.20;61.00;;;;;;5007609;28;20647;-65
2021/01/16 00:39:48;;;;;;;4.00;1.88;;;1.20;61.10;;;;;;5004934;28;20037;-65
2021/01/16 00:42:14;;;;;;;3.30;1.83;;;1.10;62.30;;;;;;5005431;28;20080;-65
2021/01/16 00:44:39;;;;;;;1.75;1.50;;;1.10;61.80;;;;;;5024045;28;20026;-66
2021/01/16 00:47:05;;;;;;;3.03;2.08;;;1.10;60.20;;;;;;5007422;28;20538;-65
2021/01/16 00:49:31;;;;;;;3.15;2.03;;;1.10;60.30;;;;;;5011500;28;20109;-65
2021/01/16 00:51:56;;;;;;;4.13;1.73;;;1.20;60.70;;;;;;5023744;28;20038;-65
2021/01/16 00:54:22;;;;;;;2.35;1.95;;;1.20;61.20;;;;;;5009048;28;20060;-65
2021/01/16 00:56:51;;;;;;;2.50;1.50;;;1.20;60.90;;;;;;5023858;28;20033;-65
2021/01/16 00:59:19;;;;;;;2.22;1.80;;;1.30;60.80;;;;;;5008398;28;20521;-65
2021/01/16 01:01:55;;;;;;;2.17;1.50;;;1.30;60.70;;;;;;5023026;28;20037;-65
2021/01/16 01:04:21;;;;;;;1.58;1.40;;;1.30;63.40;;;;;;5018117;28;20557;-65
2021/01/16 01:06:47;;;;;;;2.63;1.90;;;1.30;63.10;;;;;;5008718;28;20044;-65
2021/01/16 01:09:13;;;;;;;2.85;1.98;;;1.40;61.70;;;;;;5008061;28;20034;-65
2021/01/16 01:11:38;;;;;;;4.65;2.10;;;1.30;61.80;;;;;;5010239;28;20767;-65
2021/01/16 01:14:04;;;;;;;4.90;1.80;;;1.30;61.80;;;;;;5007384;28;20034;-65
2021/01/16 01:16:30;;;;;;;2.28;1.55;;;1.30;62.10;;;;;;5027867;28;20088;-65
2021/01/16 01:18:55;;;;;;;3.78;1.95;;;1.30;62.50;;;;;;5013417;28;20033;-65
2021/01/16 01:21:21;;;;;;;3.08;1.85;;;1.30;62.30;;;;;;5011359;28;20068;-65
2021/01/16 01:23:47;;;;;;;3.95;2.25;;;1.30;62.10;;;;;;5016663;28;20383;-65
2021/01/16 01:26:13;;;;;;;2.92;1.75;;;1.30;61.50;;;;;;5012133;28;20029;-65
2021/01/16 01:28:38;;;;;;;3.05;2.00;;;1.40;62.30;;;;;;5011250;28;20038;-65
2021/01/16 01:31:04;;;;;;;4.88;2.42;;;1.30;62.20;;;;;;5012887;28;20040;-65
2021/01/16 01:33:30;;;;;;;4.22;2.03;;;1.30;62.40;;;;;;5011112;28;20644;-65
2021/01/16 01:35:55;;;;;;;3.83;2.40;;;1.30;63.00;;;;;;5011177;28;20041;-65
2021/01/16 01:38:21;;;;;;;1.98;1.70;;;1.30;62.90;;;;;;5011217;28;20106;-65
2021/01/16 01:40:47;;;;;;;2.72;1.85;;;1.30;62.80;;;;;;5009973;28;20071;-65
2021/01/16 01:43:13;;;;;;;3.42;2.15;;;1.30;63.40;;;;;;5015362;28;20033;-65
2021/01/16 01:45:39;;;;;;;4.13;1.95;;;1.30;63.80;;;;;;5015045;28;20060;-65
2021/01/16 01:48:06;;;;;;;3.17;1.80;;;1.20;62.70;;;;;;5012828;28;20565;-65
2021/01/16 01:50:32;;;;;;;4.25;2.00;;;1.20;63.40;;;;;;5012085;28;20465;-65
2021/01/16 01:53:01;;;;;;;2.90;2.00;;;1.20;63.50;;;;;;5012794;28;20045;-65
2021/01/16 01:55:28;;;;;;;2.70;1.77;;;1.10;63.80;;;;;;5009192;28;20043;-65
2021/01/16 01:57:54;;;;;;;3.28;1.83;;;1.10;63.60;;;;;;5011935;28;20064;-65
2021/01/16 02:00:21;;;;;;;3.10;2.10;;;1.10;63.80;;;;;;5011522;28;20040;-65
2021/01/16 02:02:49;;;;;;;3.50;2.67;;;1.10;64.00;;;;;;5012300;28;20048;-65
2021/01/16 02:05:15;;;;;;;4.50;2.53;;;1.10;64.70;;;;;;5026855;28;20049;-65
2021/01/16 02:07:42;;;;;;;3.47;2.05;;;1.10;64.20;;;;;;5010366;28;20121;-65
2021/01/16 02:10:22;;;;;;;5.15;2.63;;;1.10;64.70;;;;;;5027676;28;20045;-65
2021/01/16 02:12:51;;;;;;;3.35;2.03;;;1.10;64.70;;;;;;5011372;28;20056;-64
2021/01/16 02:15:41;;;;;;;5.22;2.80;;;1.10;65.30;;;;;;5006722;28;20477;-65
2021/01/16 02:18:19;;;;;;;4.10;2.63;;;1.10;65.00;;;;;;5012327;28;20900;-65
2021/01/16 02:20:47;;;;;;;4.20;2.38;;;1.10;65.00;;;;;;5011211;28;20037;-64
2021/01/16 02:23:12;;;;;;;4.57;2.05;;;1.00;65.30;;;;;;5024727;28;20105;-65
2021/01/16 02:25:41;;;;;;;3.47;2.20;;;1.00;66.10;;;;;;5009303;28;20693;-65
2021/01/16 02:28:09;;;;;;;3.22;2.22;;;1.00;65.90;;;;;;5027200;28;20203;-65
2021/01/16 02:30:38;;;;;;;4.03;2.20;;;0.90;66.20;;;;;;5010230;28;20045;-65
2021/01/16 02:33:13;;;;;;;2.97;2.35;;;0.90;66.70;;;;;;5006038;28;20041;-65
2021/01/16 02:35:47;;;;;;;3.80;2.15;;;0.90;67.70;;;;;;5010097;28;20059;-65
2021/01/16 02:38:30;;;;;;;3.83;2.40;;;0.90;67.40;;;;;;5006936;28;20045;-65
2021/01/16 02:41:08;;;;;;;4.78;2.40;;;0.90;67.80;;;;;;5006154;28;20072;-65
2021/01/16 02:43:39;;;;;;;3.53;2.00;;;0.90;66.90;;;;;;5009671;28;20033;-65
2021/01/16 02:46:29;;;;;;;4.07;2.50;;;0.90;67.20;;;;;;5005258;28;20099;-65
2021/01/16 02:49:08;;;;;;;5.07;2.38;;;0.90;67.30;;;;;;5010122;28;20776;-64
2021/01/16 02:51:55;;;;;;;5.65;2.90;;;0.80;67.80;;;;;;5009496;28;20553;-64
2021/01/16 02:54:22;;;;;;;5.05;2.67;;;0.80;67.50;;;;;;5024768;28;20905;-64
2021/01/16 02:56:48;;;;;;;5.28;2.40;;;0.80;68.50;;;;;;5009109;28;20445;-65
2021/01/16 02:59:14;;;;;;;4.13;2.63;;;0.80;68.30;;;;;;5009051;28;20057;-65
2021/01/16 03:01:40;;;;;;;3.78;2.58;;;0.80;69.20;;;;;;5007302;28;20882;-64
2021/01/16 03:04:06;;;;;;;4.68;2.80;;;0.80;69.30;;;;;;5025952;28;20029;-65
2021/01/16 03:06:33;;;;;;;5.72;2.80;;;0.80;69.80;;;;;;5007764;28;20632;-65
2021/01/16 03:09:02;;;;;;;5.18;2.88;;;0.80;69.40;;;;;;5010228;28;20037;-64
2021/01/16 03:11:28;;;;;;;4.60;2.50;;;0.90;68.90;;;;;;5008244;28;20083;-65
2021/01/16 03:13:57;;;;;;;4.22;2.40;;;0.90;69.30;;;;;;5010112;28;20123;-65
2021/01/16 03:16:28;;;;;;;5.30;2.58;;;0.80;68.80;;;;;;5022784;28;20068;-64
2021/01/16 03:18:56;;;;;;;4.43;2.35;;;0.80;68.90;;;;;;5010439;28;20049;-64
2021/01/16 03:21:22;;;;;;;4.85;2.10;;;0.90;69.20;;;;;;5008559;28;20480;-64
2021/01/16 03:23:48;;;;;;;4.43;3.10;;;0.90;69.20;;;;;;5009461;28;20061;-64
2021/01/16 03:26:14;;;;;;;5.15;2.40;;;0.90;68.90;;;;;;5009811;28;20124;-64
2021/01/16 03:28:39;;;;;;;4.00;2.47;;;0.90;69.20;;;;;;5007406;28;20040;-64
2021/01/16 03:31:05;;;;;;;4.72;2.83;;;0.80;68.70;;;;;;5010960;28;20697;-64
2021/01/16 03:33:31;;;;;;;4.20;2.55;;;0.80;68.80;;;;;;5007440;28;20038;-64
2021/01/16 03:35:56;;;;;;;5.85;3.22;;;0.80;70.60;;;;;;5009536;28;20079;-65
2021/01/16 03:38:22;;;;;;;4.60;2.85;;;0.90;70.20;;;;;;5009320;28;20061;-64
2021/01/16 03:40:48;;;;;;;3.83;2.67;;;0.80;70.10;;;;;;5006244;28;20039;-64
2021/01/16 03:43:14;;;;;;;4.43;3.10;;;0.80;70.00;;;;;;5004367;28;20061;-65
2021/01/16 03:45:39;;;;;;;5.47;2.85;;;0.80;70.40;;;;;;5006164;28;20679;-64
2021/01/16 03:48:06;;;;;;;6.57;3.03;;;0.90;70.40;;;;;;5004826;28;20026;-67
2021/01/16 03:50:32;;;;;;;5.63;3.22;;;0.90;71.00;;;;;;5010417;28;20845;-67
2021/01/16 03:52:58;;;;;;;4.45;3.13;;;1.00;71.10;;;;;;5024859;28;20133;-67
2021/01/16 03:55:23;;;;;;;6.63;2.90;;;1.00;70.70;;;;;;5005658;28;20121;-68
2021/01/16 03:57:49;;;;;;;5.88;2.85;;;1.10;70.60;;;;;;5005320;28;20086;-67
2021/01/16 04:00:15;;;;;;;6.13;2.95;;;1.10;70.40;;;;;;5005188;28;20079;-67
2021/01/16 04:02:41;;;;;;;5.07;2.63;;;1.10;70.60;;;;;;5007020;28;20128;-68
2021/01/16 04:05:07;;;;;;;6.13;2.78;;;1.00;71.00;;;;;;5011521;28;20029;-67
2021/01/16 04:07:34;;;;;;;4.97;2.90;;;1.00;71.30;;;;;;5007080;28;20018;-67
2021/01/16 04:10:00;;;;;;;3.75;2.38;;;1.00;71.40;;;;;;5010818;28;20262;-67
2021/01/16 04:12:28;;;;;;;5.30;3.00;;;1.10;71.70;;;;;;5007932;28;20045;-67
2021/01/16 04:14:54;;;;;;;4.53;2.80;;;1.10;72.00;;;;;;5009738;28;20045;-68
2021/01/16 04:17:20;;;;;;;5.15;3.40;;;1.10;71.60;;;;;;5008814;28;20064;-67
2021/01/16 04:19:46;;;;;;;6.40;3.17;;;1.10;71.90;;;;;;5010883;28;20125;-67
2021/01/16 04:22:12;;;;;;;5.22;3.30;;;1.00;72.40;;;;;;5014428;28;20033;-67
2021/01/16 04:24:37;;;;;;;5.43;3.53;;;1.00;72.70;;;;;;5011539;28;20038;-67
2021/01/16 04:27:03;;;;;;;4.63;2.80;;;1.00;72.80;;;;;;5013137;28;20040;-68
2021/01/16 04:29:29;;;;;;;4.68;2.88;;;1.00;73.10;;;;;;5010312;28;20057;-68
2021/01/16 04:31:54;;;;;;;6.65;2.80;;;1.00;73.00;;;;;;5012062;28;20135;-67
2021/01/16 04:34:20;;;;;;;6.80;3.22;;;0.90;72.40;;;;;;5010914;28;20061;-67
2021/01/16 04:36:46;;;;;;;6.95;2.95;;;1.00;73.40;;;;;;5010062;28;20037;-67
2021/01/16 04:39:12;;;;;;;5.35;3.20;;;0.90;73.20;;;;;;5012475;28;20033;-67
2021/01/16 04:41:38;;;;;;;8.13;3.50;;;0.90;73.60;;;;;;5011460;28;20040;-67
2021/01/16 04:44:04;;;;;;;7.57;3.50;;;1.00;74.60;;;;;;5028398;28;20087;-68
2021/01/16 04:46:31;;;;;;;7.63;2.67;;;1.00;73.70;;;;;;5010525;28;20220;-67
2021/01/16 04:49:06;;;;;;;6.07;3.58;;;1.00;74.00;;;;;;5014242;28;20045;-68
2021/01/16 04:51:43;;;;;;;6.97;3.60;;;1.00;73.90;;;;;;5010962;28;20034;-67
2021/01/16 04:54:16;;;;;;;7.90;3.78;;;1.10;73.50;;;;;;5008186;28;20506;-68
2021/01/16 04:56:43;;;;;;;5.35;3.28;;;1.10;74.00;;;;;;5024121;28;20044;-67
2021/01/16 04:59:09;;;;;;;6.63;3.40;;;1.10;74.00;;;;;;5008214;28;20049;-67
2021/01/16 05:01:35;;;;;;;6.05;3.50;;;1.10;74.20;;;;;;5010926;28;20116;-67
2021/01/16 05:04:02;;;;;;;7.28;3.65;;;1.10;74.10;;;;;;5007577;28;20053;-68
2021/01/16 05:06:28;;;;;;;5.45;3.42;;;1.10;74.20;;;;;;5009481;28;20408;-67
2021/01/16 05:08:57;;;;;;;4.35;2.95;;;1.10;73.80;;;;;;5008589;28;20042;-67
2021/01/16 05:11:25;;;;;;;6.03;3.28;;;1.10;74.60;;;;;;5009642;28;20133;-68
2021/01/16 05:14:18;;;;;;;5.05;3.20;;;1.10;72.80;;;;;;5008491;28;20041;-67
2021/01/16 05:16:56;;;;;;;4.97;2.92;;;1.10;73.00;;;;;;5012197;28;20045;-67
2021/01/16 05:19:33;;;;;;;8.23;4.05;;;1.10;72.60;;;;;;5009109;28;20069;-67
2021/01/16 05:22:00;;;;;;;6.57;3.67;;;1.10;73.50;;;;;;5013131;28;20033;-67
2021/01/16 05:24:26;;;;;;;6.75;3.70;;;1.10;73.70;;;;;;5011492;28;20074;-67
2021/01/16 05:27:01;;;;;;;6.93;3.88;;;1.10;72.90;;;;;;5012056;28;20126;-68
2021/01/16 05:29:28;;;;;;;6.85;4.03;;;1.10;73.00;;;;;;5011008;28;20696;-68
2021/01/16 05:31:55;;;;;;;8.38;4.20;;;1.20;73.50;;;;;;5013195;28;20065;-67
2021/01/16 05:34:25;;;;;;;7.03;3.70;;;1.20;73.20;;;;;;5011697;28;20060;-67
2021/01/16 05:36:52;;;;;;;4.93;3.33;;;1.30;72.80;;;;;;5011893;28;20457;-68
2021/01/16 05:39:19;;;;;;;6.22;3.80;;;1.30;72.80;;;;;;5012433;28;20053;-67
2021/01/16 05:41:45;;;;;;;6.88;3.80;;;1.40;72.60;;;;;;5010958;28;20072;-67
2021/01/16 05:44:12;;;;;;;5.20;3.80;;;1.40;72.00;;;;;;5013562;28;20955;-68
2021/01/16 05:46:43;;;;;;;8.05;3.83;;;1.30;72.70;;;;;;5009807;28;20797;-67
2021/01/16 05:49:14;;;;;;;6.00;3.50;;;1.30;71.90;;;;;;5012908;28;20091;-67
2021/01/16 05:51:45;;;;;;;6.05;3.13;;;1.30;72.10;;;;;;5013274;28;20146;-67
2021/01/16 05:54:12;;;;;;;6.15;4.00;;;1.40;72.20;;;;;;5007328;28;20042;-68
2021/01/16 05:56:39;;;;;;;6.60;3.70;;;1.40;72.00;;;;;;5008667;28;20033;-67
2021/01/16 05:59:14;;;;;;;4.93;3.38;;;1.40;73.00;;;;;;5006869;28;20046;-67
2021/01/16 06:01:44;;;;;;;7.87;3.83;;;1.40;71.40;;;;;;5011827;28;20144;-67
2021/01/16 06:04:15;;;;;;;7.28;3.80;;;1.40;71.70;;;;;;5006475;28;20030;-67
2021/01/16 06:06:41;;;;;;;5.32;3.35;;;1.40;72.00;;;;;;5008272;28;20462;-68
2021/01/16 06:09:14;;;;;;;7.97;3.50;;;1.40;71.80;;;;;;5006492;28;20037;-67
2021/01/16 06:12:01;;;;;;;5.60;3.70;;;1.40;71.40;;;;;;5011022;28;20052;-68
2021/01/16 06:14:28;;;;;;;10.95;4.30;;;1.40;71.70;;;;;;5023512;28;20037;-68
2021/01/16 06:16:55;;;;;;;6.28;3.53;;;1.40;71.30;;;;;;5016668;28;20125;-67
2021/01/16 06:19:26;;;;;;;6.07;3.72;;;1.40;70.40;;;;;;5007734;28;20030;-67
2021/01/16 06:21:53;;;;;;;6.10;3.70;;;1.40;70.80;;;;;;5016555;28;20783;-67
2021/01/16 06:24:21;;;;;;;7.28;4.00;;;1.40;71.30;;;;;;5024085;28;20040;-67
2021/01/16 06:26:58;;;;;;;12.75;4.95;;;1.30;71.20;;;;;;5016355;28;20049;-67
2021/01/16 06:29:30;;;;;;;9.73;4.65;;;1.20;70.90;;;;;;5010094;28;20052;-67
2021/01/16 06:32:09;;;;;;;7.65;4.20;;;1.20;72.00;;;;;;5022779;28;20041;-67
2021/01/16 06:34:37;;;;;;;8.05;4.95;;;1.20;71.90;;;;;;5028184;28;20408;-67
2021/01/16 06:37:14;;;;;;;7.13;4.00;;;1.20;72.40;;;;;;5016235;28;20572;-68
2021/01/16 06:39:42;;;;;;;6.63;4.55;;;1.20;71.70;;;;;;5011314;28;20041;-68
2021/01/16 06:42:13;;;;;;;8.52;4.88;;;1.20;72.30;;;;;;5023609;28;20394;-68
2021/01/16 06:44:40;;;;;;;9.70;5.25;;;1.10;71.80;;;;;;5006962;28;20109;-68
2021/01/16 06:47:06;;;;;;;7.30;4.22;;;1.00;72.60;;;;;;5010783;28;20041;-70
2021/01/16 06:49:33;;;;;;;8.10;4.95;;;1.10;72.80;;;;;;5023452;28;20490;-67
2021/01/16 06:52:01;;;;;;;8.65;4.82;;;1.10;72.00;;;;;;5018636;28;20030;-68
2021/01/16 06:54:32;;;;;;;9.38;5.20;;;1.10;72.50;;;;;;5024518;28;20411;-75
2021/01/16 06:57:06;;;;;;;7.60;4.10;;;1.20;72.70;;;;;;5022062;28;20061;-67
2021/01/16 06:59:33;;;;;;;8.77;4.22;;;1.20;72.50;;;;;;5021407;28;20029;-68
2021/01/16 07:01:59;;;;;;;11.70;5.05;;;1.20;72.00;;;;;;5032414;28;20044;-68
2021/01/16 07:04:28;;;;;;;7.30;4.15;;;1.20;72.30;;;;;;5020926;28;20056;-68
2021/01/16 07:06:55;;;;;;;6.93;4.53;;;1.20;71.90;;;;;;5027578;28;20149;-68
2021/01/16 07:09:24;;;;;;;7.43;5.00;;;1.10;72.60;;;;;;5021964;28;20033;-67
2021/01/16 07:11:52;;;;;;;9.25;5.60;;;1.10;72.90;;;;;;5027300;28;20208;-68
2021/01/16 07:14:19;;;;;;;9.45;5.03;;;1.10;72.20;;;;;;5005867;28;20029;-67
2021/01/16 07:16:46;;;;;;;8.80;5.00;;;1.20;73.60;;;;;;5024399;28;20120;-68
2021/01/16 07:19:20;;;;;;;7.80;4.85;;;1.20;72.90;;;;;;5010404;28;20029;-68
2021/01/16 07:21:46;;;;;;;8.55;5.00;;;1.20;72.90;;;;;;5026607;28;20033;-68
2021/01/16 07:24:12;;;;;;;9.25;5.03;;;1.20;72.70;;;;;;5043244;28;20025;-66
2021/01/16 07:26:45;;;;;;;9.68;5.53;;;1.30;72.90;;;;;;5007010;28;20037;-66
2021/01/16 07:29:13;;;;;;;7.78;4.60;;;1.20;72.90;;;;;;5004291;28;20572;-68
2021/01/16 07:31:42;;;;;;;11.80;5.13;;;1.20;73.20;;;;;;5012520;28;20040;-67
2021/01/16 07:34:08;;;;;;;10.55;6.03;;;1.20;72.90;;;;;;5042244;28;20049;-66
2021/01/16 07:36:35;;;;;;;10.68;5.50;;;1.20;73.10;;;;;;5009035;28;20084;-69
2021/01/16 07:39:09;;;;;;;9.50;5.30;;;1.20;73.00;;;;;;5028494;28;20453;-67
2021/01/16 07:41:36;;;;;;;8.68;3.92;;;1.20;73.50;;;;;;5020206;28;20128;-67
2021/01/16 07:44:05;;;;;;;10.77;4.85;;;1.10;73.10;;;;;;5010261;28;20120;-66
2021/01/16 07:46:32;;;;;;;8.32;5.15;;;1.20;73.20;;;;;;5033657;28;20930;-66
2021/01/16 07:48:59;;;;;;;7.43;4.70;;;1.10;73.30;;;;;;5013843;28;20042;-68
2021/01/16 07:51:37;;;;;;;8.93;4.90;;;1.20;73.30;;;;;;5015863;28;20116;-67
2021/01/16 07:54:10;;;;;;;7.38;4.75;;;1.20;73.30;;;;;;5010006;28;20049;-69
2021/01/16 07:56:37;;;;;;;8.23;4.97;;;1.20;73.30;;;;;;5014849;28;20072;-68
2021/01/16 07:59:20;;;;;;;9.00;5.38;;;1.20;73.50;;;;;;5019811;28;20033;-68
2021/01/16 08:01:57;;;;;;;8.25;4.43;;;1.30;73.20;;;;;;5018351;28;20033;-67
2021/01/16 08:04:29;;;;;;;11.40;4.85;;;1.20;72.90;;;;;;5006839;28;20041;-66
2021/01/16 08:07:08;;;;;;;9.68;5.18;;;1.20;73.30;;;;;;5004080;28;20724;-66
2021/01/16 08:09:49;;;;;;;9.88;5.60;;;1.20;73.40;;;;;;5009793;28;20033;-66
2021/01/16 08:12:16;;;;;;;9.63;4.68;;;1.20;73.80;;;;;;5024753;28;20128;-67
2021/01/16 08:14:42;;;;;;;10.70;6.07;;;1.30;73.60;;;;;;5006502;28;20026;-72
2021/01/16 08:17:25;;;;;;;9.35;5.28;;;1.20;73.50;;;;;;5020338;28;20038;-67
2021/01/16 08:20:00;;;;;;;12.35;6.65;;;1.20;73.40;;;;;;5012137;28;20132;-66
2021/01/16 08:22:36;;;;;;;10.63;5.32;;;1.20;73.20;;;;;;5007244;28;20029;-70
2021/01/16 08:25:03;;;;;;;9.18;5.50;;;1.10;72.60;;;;;;5014654;28;20060;-67
2021/01/16 08:27:36;;;;;;;10.10;5.10;;;1.10;73.40;;;;;;5005143;28;20115;-66
2021/01/16 08:30:19;;;;;;;11.13;5.05;;;1.00;73.60;;;;;;5019687;28;20063;-67
2021/01/16 08:33:02;;;;;;;7.40;4.68;;;0.90;73.90;;;;;;5003786;28;20038;-68
2021/01/16 08:35:37;;;;;;;10.55;5.55;;;1.10;74.20;;;;;;5018292;28;20030;-69
2021/01/16 08:38:17;;;;;;;11.25;5.30;;;1.20;73.40;;;;;;5016550;28;20044;-68
2021/01/16 08:41:05;;;;;;;11.90;6.10;;;1.30;73.50;;;;;;5026933;28;20499;-69
2021/01/16 08:43:32;;;;;;;10.80;5.78;;;1.40;73.40;;;;;;5020718;28;20529;-68
2021/01/16 08:46:19;;;;;;;9.57;5.15;;;1.40;72.90;;;;;;5009642;28;20643;-68
2021/01/16 08:49:09;;;;;;;9.18;5.15;;;1.30;72.10;;;;;;5026364;28;20503;-67
2021/01/16 08:51:40;;;;;;;10.73;5.28;;;1.40;72.40;;;;;;5006160;28;20053;-67
2021/01/16 08:54:12;;;;;;;8.93;5.20;;;1.40;72.20;;;;;;5020023;28;20032;-67
2021/01/16 08:56:46;;;;;;;9.75;4.97;;;1.50;72.60;;;;;;5020066;28;20055;-69
2021/01/16 08:59:30;;;;;;;7.03;4.30;;;1.40;72.10;;;;;;5024210;28;20118;-67
2021/01/16 09:02:10;;;;;;;8.68;5.47;;;1.50;71.80;;;;;;5030163;28;20512;-69
2021/01/16 09:04:43;;;;;;;10.77;5.95;;;1.50;71.40;;;;;;5014082;28;20078;-69
2021/01/16 09:07:13;;;;;;;8.82;5.40;;;1.50;72.00;;;;;;5026925;28;20054;-70
2021/01/16 09:09:39;;;;;;;10.27;5.15;;;1.50;72.30;;;;;;5015806;28;20038;-70
2021/01/16 09:12:11;;;;;;;10.55;6.10;;;1.50;72.00;;;;;;5026774;28;20060;-71
2021/01/16 09:14:40;;;;;;;10.57;5.90;;;1.50;71.70;;;;;;5033407;28;20485;-69
2021/01/16 09:17:23;;;;;;;9.32;4.93;;;1.50;71.60;;;;;;5013338;28;20143;-70
2021/01/16 09:19:58;;;;;;;11.05;5.43;;;1.50;71.80;;;;;;5010945;28;20197;-69
2021/01/16 09:22:31;;;;;;;9.23;5.00;;;1.50;71.70;;;;;;5020853;28;20021;-69
2021/01/16 09:25:22;;;;;;;11.60;5.55;;;1.60;71.30;;;;;;5016641;28;20298;-69
2021/01/16 09:27:49;;;;;;;10.55;5.57;;;1.60;71.30;;;;;;5011413;28;20087;-69
2021/01/16 09:30:19;;;;;;;8.48;4.90;;;1.70;71.00;;;;;;5017356;28;20046;-69
2021/01/16 09:32:45;;;;;;;8.45;5.55;;;1.60;70.20;;;;;;5026591;28;20079;-69
2021/01/16 09:35:11;;;;;;;9.75;5.53;;;1.60;70.90;;;;;;5032956;28;20148;-69
2021/01/16 09:37:38;;;;;;;8.93;5.40;;;1.60;70.70;;;;;;5009472;28;20485;-70
2021/01/16 09:40:12;;;;;;;9.57;4.95;;;1.70;72.00;;;;;;5018147;28;20045;-69
2021/01/16 09:42:48;;;;;;;18.95;8.77;;;1.70;71.00;;;;;;5012122;28;20041;-68
2021/01/16 09:45:16;;;;;;;10.52;5.38;;;1.70;70.80;;;;;;5021605;28;20076;-69
2021/01/16 09:47:49;;;;;;;10.30;5.85;;;1.80;70.60;;;;;;5022951;28;20493;-69
2021/01/16 09:50:21;;;;;;;9.65;5.20;;;1.90;69.90;;;;;;5016831;28;20041;-68
2021/01/16 09:52:55;;;;;;;9.75;5.60;;;1.90;69.70;;;;;;5025837;28;20527;-69
2021/01/16 09:55:27;;;;;;;10.15;5.07;;;2.00;69.90;;;;;;5017265;28;20065;-69
2021/01/16 09:57:53;;;;;;;8.88;5.32;;;2.00;68.90;;;;;;5027167;28;20048;-69
2021/01/16 10:00:33;;;;;;;9.63;5.10;;;2.10;69.70;;;;;;5038694;28;20037;-69
2021/01/16 10:03:09;;;;;;;8.13;5.07;;;2.20;68.90;;;;;;5018474;28;20037;-69
2021/01/16 10:05:42;;;;;;;10.38;6.72;;;2.30;68.20;;;;;;5016218;28;20409;-70
2021/01/16 10:08:08;;;;;;;11.85;5.80;;;2.40;68.00;;;;;;5021974;28;20037;-69
2021/01/16 10:10:43;;;;;;;11.35;6.95;;;2.40;68.10;;;;;;5015648;28;20041;-69
2021/01/16 10:13:11;;;;;;;8.35;4.38;;;2.40;68.00;;;;;;5015096;28;20036;-68
2021/01/16 10:15:49;;;;;;;11.15;5.25;;;2.40;68.10;;;;;;5014766;28;20119;-69
2021/01/16 10:18:20;;;;;;;13.52;5.72;;;2.50;66.70;;;;;;5017616;28;20478;-69
2021/01/16 10:21:01;;;;;;;8.07;4.68;;;2.50;66.50;;;;;;5016219;28;20120;-68
2021/01/16 10:23:28;;;;;;;12.05;6.05;;;2.30;67.10;;;;;;5015914;28;20044;-70
2021/01/16 10:26:00;;;;;;;13.02;6.05;;;2.30;67.60;;;;;;5010933;28;20033;-72
2021/01/16 10:28:35;;;;;;;8.70;5.20;;;2.40;67.30;;;;;;5014211;28;20076;-69
2021/01/16 10:31:06;;;;;;;11.73;5.80;;;2.50;67.40;;;;;;5012713;28;20060;-69
2021/01/16 10:33:39;;;;;;;8.70;5.43;;;2.50;67.10;;;;;;5008999;28;20048;-69
2021/01/16 10:36:11;;;;;;;7.32;4.47;;;2.50;67.20;;;;;;5012418;28;20036;-68
2021/01/16 10:38:41;;;;;;;12.38;5.70;;;2.50;66.50;;;;;;5023193;28;20486;-69
2021/01/16 10:41:08;;;;;;;9.98;5.03;;;2.40;66.40;;;;;;5005438;28;20022;-69
2021/01/16 10:43:35;;;;;;;6.72;4.35;;;2.50;66.90;;;;;;5013619;28;20132;-69
2021/01/16 10:46:08;;;;;;;10.73;5.35;;;2.50;66.80;;;;;;5034779;28;20033;-68
2021/01/16 10:48:38;;;;;;;8.00;4.78;;;2.40;66.60;;;;;;5016195;28;20028;-68
2021/01/16 10:51:06;;;;;;;12.18;5.38;;;2.50;66.40;;;;;;5024183;28;20044;-68
2021/01/16 10:53:35;;;;;;;8.30;4.82;;;2.30;66.40;;;;;;5014283;28;20379;-69
2021/01/16 10:56:14;;;;;;;7.60;4.40;;;2.10;66.40;;;;;;5009824;28;20132;-69
2021/01/16 10:58:40;;;;;;;9.02;4.65;;;2.10;67.70;;;;;;5019636;28;20111;-68
2021/01/16 11:01:09;;;;;;;9.43;4.90;;;2.10;67.60;;;;;;5004540;28;20030;-68
2021/01/16 11:03:35;;;;;;;8.38;4.97;;;2.20;67.80;;;;;;5009769;28;20136;-68
2021/01/16 11:06:10;;;;;;;8.95;4.43;;;2.10;67.40;;;;;;5024925;28;20923;-73
2021/01/16 11:08:39;;;;;;;7.55;4.70;;;2.20;67.60;;;;;;5013936;28;20035;-73
2021/01/16 11:11:25;;;;;;;11.07;5.68;;;2.10;67.20;;;;;;5016596;28;20233;-73
2021/01/16 11:13:51;;;;;;;9.00;4.88;;;2.10;67.70;;;;;;5004834;28;20084;-73
2021/01/16 11:16:25;;;;;;;7.10;3.83;;;2.10;67.50;;;;;;5012839;28;20060;-73
2021/01/16 11:18:52;;;;;;;7.40;4.20;;;2.10;66.60;;;;;;5021073;28;20042;-68
2021/01/16 11:21:39;;;;;;;10.07;4.43;;;2.10;67.20;;;;;;5017178;28;20056;-68
2021/01/16 11:24:23;;;;;;;9.98;5.20;;;2.10;66.50;;;;;;4980011;28;20739;-70
2021/01/16 11:26:49;;;;;;;7.78;5.05;;;2.10;67.00;;;;;;5018272;28;20040;-68
2021/01/16 11:29:19;;;;;;;9.60;4.53;;;2.10;67.10;;;;;;5014270;28;20033;-68
2021/01/16 11:31:50;;;;;;;8.57;4.50;;;2.20;67.00;;;;;;5009039;28;20494;-69
2021/01/16 11:34:21;;;;;;;8.65;5.25;;;2.30;66.40;;;;;;5015513;28;20079;-69
2021/01/16 11:37:04;;;;;;;9.85;5.13;;;2.30;66.60;;;;;;5008935;28;20095;-69
2021/01/16 11:39:50;;;;;;;7.03;4.90;;;2.30;66.00;;;;;;5018372;28;20051;-69
2021/01/16 11:42:18;;;;;;;9.38;5.32;;;2.40;66.70;;;;;;5010250;28;20245;-69
2021/01/16 11:44:57;;;;;;;9.30;5.60;;;2.40;66.30;;;;;;5014189;28;20037;-69
2021/01/16 11:47:26;;;;;;;12.57;5.82;;;2.50;65.90;;;;;;5012151;28;20675;-69
2021/01/16 11:49:54;;;;;;;10.00;5.68;;;2.40;65.40;;;;;;5020087;28;20049;-69
2021/01/16 11:52:20;;;;;;;9.07;4.95;;;2.40;66.40;;;;;;5008834;28;20037;-69
2021/01/16 11:54:48;;;;;;;9.02;6.22;;;2.50;65.90;;;;;;5029273;28;20063;-69
2021/01/16 11:57:19;;;;;;;7.50;4.63;;;2.60;65.70;;;;;;5012646;28;20042;-68
2021/01/16 11:59:45;;;;;;;6.47;3.72;;;2.60;65.60;;;;;;5023228;28;20041;-69
2021/01/16 12:02:13;;;;;;;8.25;4.70;;;2.60;65.00;;;;;;5016551;28;20112;-68
2021/01/16 12:04:46;;;;;;;7.35;4.40;;;2.60;65.60;;;;;;5012819;28;20034;-69
2021/01/16 12:07:13;;;;;;;8.85;4.68;;;2.60;65.40;;;;;;5009686;28;20033;-68
2021/01/16 12:09:42;;;;;;;9.82;5.10;;;2.60;64.50;;;;;;5012521;28;20029;-68
2021/01/16 12:12:10;;;;;;;8.23;4.30;;;2.60;65.70;;;;;;5008027;28;20103;-68
2021/01/16 12:14:37;;;;;;;8.98;4.90;;;2.80;65.50;;;;;;5021206;28;20037;-68
2021/01/16 12:17:11;;;;;;;9.18;5.10;;;2.80;65.30;;;;;;5025958;28;20485;-67
2021/01/16 12:19:38;;;;;;;8.60;4.82;;;2.80;64.90;;;;;;5033104;28;20536;-67
2021/01/16 12:22:06;;;;;;;11.63;4.90;;;2.80;65.00;;;;;;5009936;28;20038;-69
2021/01/16 12:24:32;;;;;;;7.22;4.72;;;2.80;64.80;;;;;;5013354;28;20049;-67
2021/01/16 12:27:00;;;;;;;7.57;4.47;;;2.70;64.50;;;;;;5030113;28;20056;-69
2021/01/16 12:29:46;;;;;;;9.27;5.57;;;2.70;65.10;;;;;;5020498;28;20046;-66
2021/01/16 12:32:14;;;;;;;17.48;8.48;;;2.70;65.40;;;;;;5021303;28;20059;-67
2021/01/16 12:34:49;;;;;;;8.32;4.68;;;2.70;65.20;;;;;;5006298;28;20041;-68
2021/01/16 12:37:32;;;;;;;8.80;5.03;;;2.70;65.60;;;;;;5015658;28;20029;-68
2021/01/16 12:39:59;;;;;;;9.02;5.85;;;2.60;65.60;;;;;;5009206;28;20045;-68
2021/01/16 12:42:29;;;;;;;7.95;4.45;;;2.50;66.10;;;;;;5010303;28;20045;-67
2021/01/16 12:45:11;;;;;;;9.25;4.65;;;2.50;66.00;;;;;;5008189;28;20034;-68
2021/01/16 12:47:39;;;;;;;7.20;4.28;;;2.60;66.30;;;;;;5024447;28;20045;-67
2021/01/16 12:50:06;;;;;;;10.20;5.15;;;2.50;65.80;;;;;;5024491;28;20859;-67
2021/01/16 12:52:32;;;;;;;9.05;4.88;;;2.50;65.90;;;;;;5019878;28;20040;-67
2021/01/16 12:55:06;;;;;;;16.83;5.65;;;2.50;66.50;;;;;;5030922;28;20489;-67
2021/01/16 12:57:37;;;;;;;11.43;5.35;;;2.40;66.20;;;;;;5023691;28;20038;-66
2021/01/16 13:00:13;;;;;;;12.27;5.63;;;2.40;66.60;;;;;;5023361;28;20044;-67
2021/01/16 13:02:39;;;;;;;13.45;5.88;;;2.20;67.00;;;;;;5017659;28;20029;-67
2021/01/16 13:05:11;;;;;;;14.52;5.65;;;2.20;67.50;;;;;;5015568;28;20036;-67
2021/01/16 13:07:37;;;;;;;10.70;6.25;;;2.20;67.50;;;;;;5025295;28;20030;-67
2021/01/16 13:10:07;;;;;;;9.32;5.68;;;2.30;67.30;;;;;;5025348;28;20039;-67